createdAt,value
2022-10-17T00:04:06.431Z,94.37
2022-10-17T00:19:48.593Z,94.57
2022-10-17T00:35:30.971Z,94.7
2022-10-17T00:51:13.869Z,93.73
2022-10-17T01:06:56.089Z,94.19
2022-10-17T01:22:38.563Z,95.04
2022-10-17T01:38:20.783Z,94.97
2022-10-17T01:54:02.935Z,95.18
2022-10-17T02:09:45.186Z,94.77
2022-10-17T02:25:28.092Z,94.74
2022-10-17T02:41:10.940Z,95.25
2022-10-17T02:56:53.548Z,95.99
2022-10-17T03:12:36.175Z,97.3
2022-10-17T03:28:18.323Z,98.38
2022-10-17T03:44:00.761Z,100
2022-10-17T03:59:42.889Z,100
2022-10-17T04:15:25.410Z,100
2022-10-17T04:31:08.178Z,100
2022-10-17T04:46:50.980Z,100
2022-10-17T05:02:33.550Z,100
2022-10-17T05:18:16.479Z,100
2022-10-17T05:33:58.999Z,100
2022-10-17T05:49:42.039Z,100
2022-10-17T06:05:24.766Z,100
2022-10-17T06:21:07.270Z,100
2022-10-17T06:36:49.710Z,100
2022-10-17T06:52:32.580Z,100
2022-10-17T07:08:14.714Z,100
2022-10-17T07:23:57.408Z,100
2022-10-17T07:39:39.858Z,100
2022-10-17T07:55:22.751Z,100
2022-10-17T08:11:05.374Z,100
2022-10-17T08:26:47.493Z,73.93
2022-10-17T08:42:30.396Z,67.44
2022-10-17T08:58:13.035Z,59.61
2022-10-17T09:13:55.052Z,55.93
2022-10-17T09:29:37.630Z,55.56
2022-10-17T09:45:19.860Z,55.75
2022-10-17T10:01:02.542Z,54.16
2022-10-17T10:16:45.002Z,47.47
2022-10-17T10:32:27.430Z,46.57
2022-10-17T10:48:09.754Z,49.13
2022-10-17T11:03:52.525Z,47.54
2022-10-17T11:19:35.352Z,46.51
2022-10-17T11:35:17.652Z,45.72
2022-10-17T11:51:00.430Z,41.59
2022-10-17T12:06:42.687Z,39.67
2022-10-17T12:22:25.313Z,37.09
2022-10-17T12:38:08.177Z,34.99
2022-10-17T12:38:55.319Z,33.66
2022-10-17T12:54:38.074Z,31.62
2022-10-17T13:10:20.511Z,30.76
2022-10-17T13:26:03.087Z,30.97
2022-10-17T13:41:45.263Z,32.99
2022-10-17T13:57:27.939Z,33.23
2022-10-17T14:13:10.880Z,33.15
2022-10-17T14:28:53.456Z,31.75
2022-10-17T14:44:35.432Z,38.11
2022-10-17T15:00:18.149Z,42.83
2022-10-17T15:16:00.768Z,46.67
2022-10-17T15:31:42.992Z,50.13
2022-10-17T15:47:25.503Z,52.36
2022-10-17T16:03:07.648Z,55.38
2022-10-17T16:18:50.094Z,58.53
2022-10-17T16:34:32.697Z,60.49
2022-10-17T16:50:14.760Z,63.73
2022-10-17T17:05:56.810Z,65.45
2022-10-17T17:21:39.725Z,68.27
2022-10-17T17:53:04.405Z,73.87
2022-10-17T18:08:46.925Z,73.81
2022-10-17T18:24:29.607Z,74.26
2022-10-17T18:40:12.125Z,77.19
2022-10-17T18:55:54.859Z,77.24
2022-10-17T19:11:37.776Z,78.98
2022-10-17T19:27:20.355Z,80.36
2022-10-17T19:43:03.082Z,80.59
2022-10-17T19:58:45.601Z,81.58
2022-10-17T20:14:28.427Z,81.5
2022-10-17T20:30:10.481Z,81.66
2022-10-17T20:45:53.445Z,83.52
2022-10-17T21:01:36.099Z,84.88
2022-10-17T21:17:19.027Z,85.61
2022-10-17T21:33:01.142Z,86.4
2022-10-17T21:48:43.410Z,87.27
2022-10-17T22:04:26.426Z,87.76
2022-10-17T22:20:09.319Z,88.33
2022-10-17T22:35:52.348Z,89.81
2022-10-17T22:51:34.845Z,90.92
2022-10-17T23:07:17.655Z,90.96
2022-10-17T23:22:59.721Z,91.47
2022-10-17T23:38:42.518Z,92.61
2022-10-17T23:54:25.408Z,93.19
